createdAt,value
2022-08-30T00:00:41.865Z,0.80
2022-08-30T00:03:12.410Z,1.00
2022-08-30T00:05:44.370Z,1.00
2022-08-30T00:08:14.930Z,0.90
2022-08-30T00:10:43.697Z,1.00
2022-08-30T00:13:14.717Z,1.10
2022-08-30T00:15:43.825Z,0.80
2022-08-30T00:18:13.463Z,1.00
2022-08-30T00:20:43.374Z,1.10
2022-08-30T00:23:15.897Z,1.10
2022-08-30T00:25:42.966Z,0.80
2022-08-30T00:28:11.684Z,0.80
2022-08-30T00:30:47.510Z,0.70
2022-08-30T00:33:15.885Z,1.00
2022-08-30T00:35:44.162Z,0.90
2022-08-30T00:38:13.582Z,0.90
2022-08-30T00:40:45.311Z,1.40
2022-08-30T00:43:23.252Z,1.10
2022-08-30T00:45:52.287Z,1.10
2022-08-30T00:48:19.517Z,1.10
2022-08-30T00:50:53.424Z,1.30
2022-08-30T00:53:26.720Z,1.00
2022-08-30T00:55:55.020Z,1.10
2022-08-30T00:58:30.002Z,0.90
2022-08-30T01:01:05.191Z,0.90
2022-08-30T01:03:35.664Z,1.10
2022-08-30T01:06:04.921Z,0.70
2022-08-30T01:08:35.754Z,0.90
2022-08-30T01:11:08.942Z,0.70
2022-08-30T01:13:39.365Z,0.60
2022-08-30T01:16:07.031Z,1.00
2022-08-30T01:18:37.177Z,0.80
2022-08-30T01:21:31.304Z,0.80
2022-08-30T01:24:00.704Z,1.00
2022-08-30T01:26:30.202Z,0.80
2022-08-30T01:29:05.142Z,1.10
2022-08-30T01:31:37.160Z,0.90
2022-08-30T01:34:07.536Z,0.70
2022-08-30T01:36:44.702Z,0.80
2022-08-30T01:39:20.550Z,0.80
2022-08-30T01:41:47.795Z,0.90
2022-08-30T01:44:15.656Z,0.80
2022-08-30T01:46:46.609Z,1.10
2022-08-30T01:49:17.618Z,0.80
2022-08-30T01:51:50.164Z,0.70
2022-08-30T01:54:37.915Z,0.80
2022-08-30T01:57:26.933Z,0.70
2022-08-30T01:59:56.874Z,0.90
2022-08-30T02:02:30.346Z,0.70
2022-08-30T02:05:48.311Z,0.80
2022-08-30T02:08:48.563Z,1.00
2022-08-30T02:11:31.648Z,1.00
2022-08-30T02:14:39.491Z,0.80
2022-08-30T02:17:36.905Z,0.80
2022-08-30T02:20:05.438Z,1.00
2022-08-30T02:22:58.518Z,0.90
2022-08-30T02:25:46.429Z,0.90
2022-08-30T02:28:34.741Z,0.80
2022-08-30T02:34:12.957Z,1.00
2022-08-30T02:36:53.314Z,0.80
2022-08-30T02:39:52.460Z,0.90
2022-08-30T02:42:31.001Z,0.70
2022-08-30T02:45:41.976Z,0.60
2022-08-30T02:48:19.860Z,0.70
2022-08-30T02:50:52.260Z,0.80
2022-08-30T02:53:40.232Z,0.90
2022-08-30T02:56:20.425Z,1.00
2022-08-30T02:58:48.379Z,0.90
2022-08-30T03:01:20.714Z,0.80
2022-08-30T03:03:50.907Z,0.90
2022-08-30T03:06:21.829Z,0.90
2022-08-30T03:09:34.057Z,0.80
2022-08-30T03:12:18.576Z,1.00
2022-08-30T03:15:25.482Z,0.80
2022-08-30T03:18:30.503Z,0.90
2022-08-30T03:21:35.165Z,0.90
2022-08-30T03:24:52.836Z,0.80
2022-08-30T03:27:35.609Z,0.60
2022-08-30T03:30:46.164Z,0.90
2022-08-30T03:33:26.925Z,0.70
2022-08-30T03:36:38.391Z,0.80
2022-08-30T03:39:41.529Z,0.80
2022-08-30T03:43:12.212Z,1.00
2022-08-30T03:46:52.769Z,1.10
2022-08-30T03:49:49.406Z,1.00
2022-08-30T03:53:02.607Z,1.00
2022-08-30T03:56:26.330Z,1.30
2022-08-30T04:00:14.229Z,1.10
2022-08-30T04:04:07.701Z,1.00
2022-08-30T04:07:55.537Z,1.20
2022-08-30T04:10:47.745Z,1.30
2022-08-30T04:14:35.613Z,1.10
2022-08-30T04:17:38.793Z,0.90
2022-08-30T04:21:42.834Z,0.90
2022-08-30T04:25:19.679Z,1.00
2022-08-30T04:28:41.260Z,2.30
2022-08-30T04:31:37.003Z,7.90
2022-08-30T04:34:15.277Z,10.20
2022-08-30T04:37:42.482Z,5.60
2022-08-30T04:40:28.599Z,3.00
2022-08-30T04:43:35.588Z,2.50
2022-08-30T04:46:52.184Z,1.50
2022-08-30T04:49:34.881Z,1.20
2022-08-30T04:52:18.307Z,1.60
2022-08-30T04:54:48.717Z,1.00
2022-08-30T04:57:16.167Z,1.40
2022-08-30T05:00:17.294Z,1.10
2022-08-30T05:03:42.006Z,1.10
2022-08-30T05:07:03.076Z,1.10
2022-08-30T05:09:50.600Z,1.40
2022-08-30T05:12:40.489Z,1.40
2022-08-30T05:15:49.285Z,1.30
2022-08-30T05:18:59.749Z,1.40
2022-08-30T05:21:31.304Z,1.10
2022-08-30T05:24:03.860Z,1.00
2022-08-30T05:26:38.265Z,1.20
2022-08-30T05:29:08.606Z,1.40
2022-08-30T05:31:38.818Z,1.00
2022-08-30T05:34:05.873Z,1.40
2022-08-30T05:36:35.614Z,1.50
2022-08-30T05:39:05.534Z,1.10
2022-08-30T05:41:33.533Z,1.00
2022-08-30T05:44:05.430Z,1.10
2022-08-30T05:46:58.035Z,0.80
2022-08-30T05:49:30.227Z,1.30
2022-08-30T05:52:04.888Z,0.90
2022-08-30T05:55:05.068Z,1.40
2022-08-30T05:58:08.471Z,1.20
2022-08-30T06:02:02.595Z,0.90
2022-08-30T06:05:40.588Z,1.40
2022-08-30T06:09:21.362Z,1.00
2022-08-30T06:13:29.350Z,0.80
2022-08-30T06:17:19.648Z,1.20
2022-08-30T06:21:07.561Z,1.00
2022-08-30T06:24:57.878Z,1.30
2022-08-30T06:29:06.199Z,1.20
2022-08-30T06:33:14.629Z,1.40
2022-08-30T06:37:05.929Z,1.30
2022-08-30T06:40:52.427Z,1.10
2022-08-30T06:44:52.928Z,1.00
2022-08-30T06:48:56.111Z,0.90
2022-08-30T06:53:04.370Z,5.00
2022-08-30T06:56:27.593Z,3.30
2022-08-30T06:59:35.784Z,1.20
2022-08-30T07:02:31.513Z,0.90
2022-08-30T07:04:58.886Z,1.10
2022-08-30T07:07:48.837Z,1.00
2022-08-30T07:11:56.776Z,1.00
2022-08-30T07:15:54.816Z,1.00
2022-08-30T07:20:02.985Z,1.00
2022-08-30T07:23:53.910Z,0.90
2022-08-30T07:26:51.635Z,1.10
2022-08-30T07:29:59.379Z,0.90
2022-08-30T07:32:54.740Z,1.10
2022-08-30T07:35:53.329Z,1.10
2022-08-30T07:38:56.387Z,1.30
2022-08-30T07:41:38.783Z,1.10
2022-08-30T07:44:32.474Z,1.10
2022-08-30T07:47:13.967Z,0.80
2022-08-30T07:49:46.749Z,0.90
2022-08-30T07:52:22.861Z,1.20
2022-08-30T07:55:03.860Z,1.00
2022-08-30T07:57:37.086Z,1.20
2022-08-30T08:00:37.727Z,1.10
2022-08-30T08:03:17.439Z,1.10
2022-08-30T08:05:53.415Z,1.10
2022-08-30T08:08:57.713Z,1.30
2022-08-30T08:11:46.387Z,1.10
2022-08-30T08:14:54.153Z,1.00
2022-08-30T08:17:32.666Z,1.40
2022-08-30T08:21:00.121Z,0.90
2022-08-30T08:25:08.104Z,2.50
2022-08-30T08:28:50.248Z,1.00
2022-08-30T08:32:58.175Z,1.00
2022-08-30T08:37:06.196Z,1.00
2022-08-30T08:41:14.146Z,1.10
2022-08-30T08:45:37.136Z,1.10
2022-08-30T08:49:51.020Z,1.00
2022-08-30T08:53:56.754Z,0.60
2022-08-30T08:57:43.521Z,0.60
2022-08-30T09:00:29.491Z,0.60
2022-08-30T09:03:04.609Z,0.60
2022-08-30T09:05:43.697Z,0.90
2022-08-30T09:08:18.073Z,0.60
2022-08-30T09:15:01.987Z,0.60
2022-08-30T09:19:24.826Z,0.60
2022-08-30T09:23:35.462Z,0.80
2022-08-30T09:27:11.188Z,0.70
2022-08-30T09:30:25.621Z,0.80
2022-08-30T09:33:23.613Z,0.80
2022-08-30T09:36:29.710Z,1.00
2022-08-30T09:39:15.556Z,0.70
2022-08-30T09:42:10.029Z,0.60
2022-08-30T09:46:18.570Z,0.80
2022-08-30T09:50:29.366Z,0.70
2022-08-30T09:54:18.280Z,0.60
2022-08-30T09:57:54.305Z,0.50
2022-08-30T10:01:40.800Z,0.80
2022-08-30T10:04:36.334Z,0.90
2022-08-30T10:08:07.697Z,1.00
2022-08-30T10:11:03.715Z,1.00
2022-08-30T10:14:54.974Z,0.80
2022-08-30T10:19:24.039Z,1.00
2022-08-30T10:23:40.807Z,1.00
2022-08-30T10:27:51.682Z,1.20
2022-08-30T10:32:05.504Z,1.20
2022-08-30T10:35:29.037Z,1.10
2022-08-30T10:39:34.336Z,1.00
2022-08-30T10:43:06.845Z,1.30
2022-08-30T10:47:29.629Z,8.70
2022-08-30T10:51:26.682Z,2.90
2022-08-30T10:55:05.558Z,3.80
2022-08-30T10:58:42.618Z,1.20
2022-08-30T11:03:10.499Z,0.80
2022-08-30T11:07:11.419Z,0.90
2022-08-30T11:11:22.145Z,0.90
2022-08-30T11:15:30.126Z,2.40
2022-08-30T11:18:51.960Z,4.80
2022-08-30T11:22:19.997Z,1.90
2022-08-30T11:26:20.479Z,1.10
2022-08-30T11:30:02.843Z,0.90
2022-08-30T11:34:22.719Z,0.70
2022-08-30T11:38:38.366Z,1.10
2022-08-30T11:42:53.604Z,0.90
2022-08-30T11:46:56.293Z,0.70
2022-08-30T11:50:23.812Z,1.10
2022-08-30T11:54:37.530Z,1.30
2022-08-30T11:58:50.968Z,1.10
2022-08-30T12:02:49.816Z,0.80
2022-08-30T12:06:18.979Z,0.80
2022-08-30T12:10:27.030Z,0.60
2022-08-30T12:14:34.987Z,0.70
2022-08-30T12:18:48.029Z,1.20
2022-08-30T12:22:45.372Z,3.70
2022-08-30T12:26:44.485Z,1.20
2022-08-30T12:30:52.357Z,1.20
2022-08-30T12:34:57.477Z,0.80
2022-08-30T12:39:05.911Z,0.80
2022-08-30T12:42:54.820Z,0.90
2022-08-30T12:46:22.509Z,0.60
2022-08-30T12:50:23.074Z,1.00
2022-08-30T12:54:21.324Z,0.70
2022-08-30T12:58:41.848Z,0.70
2022-08-30T13:02:52.502Z,0.80
2022-08-30T13:07:00.489Z,1.00
2022-08-30T13:11:14.474Z,1.10
2022-08-30T13:15:25.318Z,0.90
2022-08-30T13:18:26.827Z,0.90
2022-08-30T13:21:30.561Z,0.80
2022-08-30T13:24:03.582Z,0.90
2022-08-30T13:26:33.781Z,0.70
2022-08-30T13:29:10.323Z,0.90
2022-08-30T13:31:37.919Z,0.90
2022-08-30T13:34:05.254Z,1.00
2022-08-30T13:36:59.866Z,0.90
2022-08-30T13:40:27.547Z,0.80
2022-08-30T13:44:35.539Z,1.00
2022-08-30T13:48:43.717Z,0.90
2022-08-30T13:52:54.625Z,0.80
2022-08-30T13:56:55.206Z,0.80
2022-08-30T14:01:03.290Z,0.80
2022-08-30T14:05:03.373Z,0.60
2022-08-30T14:09:11.460Z,0.80
2022-08-30T14:13:19.773Z,0.80
2022-08-30T14:16:28.419Z,0.80
2022-08-30T14:19:50.302Z,0.60
2022-08-30T14:22:19.902Z,0.70
2022-08-30T14:24:50.132Z,1.20
2022-08-30T14:27:17.374Z,0.70
2022-08-30T14:29:51.552Z,0.60
2022-08-30T14:32:21.583Z,1.20
2022-08-30T14:35:40.988Z,0.80
2022-08-30T14:39:08.543Z,0.90
2022-08-30T14:42:37.609Z,1.10
2022-08-30T14:45:15.485Z,0.70
2022-08-30T14:47:56.218Z,0.80
2022-08-30T14:50:27.977Z,0.80
2022-08-30T14:52:54.918Z,0.80
2022-08-30T14:55:44.459Z,0.70
2022-08-30T14:58:40.592Z,0.70
2022-08-30T15:02:00.698Z,0.60
2022-08-30T15:05:08.678Z,0.70
2022-08-30T15:08:59.666Z,2.10
2022-08-30T15:12:24.708Z,0.80
2022-08-30T15:16:32.502Z,1.10
2022-08-30T15:20:40.449Z,0.70
2022-08-30T15:24:49.029Z,0.80
2022-08-30T15:28:50.090Z,0.70
2022-08-30T15:32:58.017Z,0.60
2022-08-30T15:37:06.281Z,1.00
2022-08-30T15:41:15.723Z,0.60
2022-08-30T15:45:03.714Z,0.80
2022-08-30T15:49:11.632Z,0.80
2022-08-30T15:52:55.730Z,0.70
2022-08-30T15:57:05.866Z,0.70
2022-08-30T16:01:06.990Z,0.60
2022-08-30T16:04:58.340Z,0.50
2022-08-30T16:08:50.786Z,0.60
2022-08-30T16:11:58.465Z,0.70
2022-08-30T16:16:06.844Z,0.50
2022-08-30T16:20:14.805Z,0.60
2022-08-30T16:24:22.879Z,0.60
2022-08-30T16:28:24.307Z,0.50
2022-08-30T16:32:32.224Z,0.40
2022-08-30T16:36:40.151Z,0.40
2022-08-30T16:40:07.560Z,0.30
2022-08-30T16:43:28.873Z,0.90
2022-08-30T16:47:29.730Z,0.60
2022-08-30T16:51:18.224Z,0.50
2022-08-30T16:55:26.160Z,0.50
2022-08-30T16:59:34.083Z,0.30
2022-08-30T17:02:53.973Z,1.00
2022-08-30T17:07:02.221Z,0.30
2022-08-30T17:10:10.005Z,0.30
2022-08-30T17:12:43.862Z,0.40
2022-08-30T17:15:28.946Z,0.40
2022-08-30T17:17:56.499Z,0.50
2022-08-30T17:20:31.618Z,0.40
2022-08-30T17:23:08.068Z,0.20
2022-08-30T17:25:35.848Z,0.40
2022-08-30T17:28:12.132Z,0.40
2022-08-30T17:30:42.757Z,0.30
2022-08-30T17:33:15.790Z,0.80
2022-08-30T17:36:00.382Z,0.50
2022-08-30T17:38:30.111Z,0.40
2022-08-30T17:41:09.240Z,0.30
2022-08-30T17:43:38.014Z,0.40
2022-08-30T17:46:14.317Z,0.30
2022-08-30T17:48:41.832Z,0.20
2022-08-30T17:51:42.496Z,0.20
2022-08-30T17:54:14.272Z,0.40
2022-08-30T17:56:47.726Z,0.50
2022-08-30T17:59:17.794Z,0.50
2022-08-30T18:01:47.690Z,0.40
2022-08-30T18:04:20.524Z,0.30
2022-08-30T18:06:50.686Z,0.50
2022-08-30T18:09:21.575Z,0.40
2022-08-30T18:11:50.514Z,0.30
2022-08-30T18:14:21.747Z,0.50
2022-08-30T18:16:54.744Z,0.30
2022-08-30T18:19:46.694Z,0.40
2022-08-30T18:22:31.524Z,0.20
2022-08-30T18:25:02.636Z,0.40
2022-08-30T18:27:30.330Z,0.50
2022-08-30T18:29:57.494Z,0.50
2022-08-30T18:32:36.054Z,0.60
2022-08-30T18:35:05.833Z,0.40
2022-08-30T18:37:32.556Z,0.50
2022-08-30T18:40:00.848Z,0.20
2022-08-30T18:42:28.008Z,0.50
2022-08-30T18:44:59.885Z,0.50
2022-08-30T18:47:44.705Z,0.50
2022-08-30T18:50:15.850Z,0.80
2022-08-30T18:52:56.106Z,0.60
2022-08-30T18:55:31.862Z,0.60
2022-08-30T18:58:03.461Z,0.60
2022-08-30T19:00:51.027Z,0.90
2022-08-30T19:03:21.589Z,0.90
2022-08-30T19:05:49.038Z,1.00
2022-08-30T19:08:24.600Z,0.70
2022-08-30T19:10:51.724Z,1.00
2022-08-30T19:13:24.074Z,0.70
2022-08-30T19:15:52.248Z,0.70
2022-08-30T19:18:20.045Z,0.80
2022-08-30T19:20:50.330Z,0.90
2022-08-30T19:23:18.886Z,0.70
2022-08-30T19:25:46.580Z,0.60
2022-08-30T19:28:20.519Z,0.50
2022-08-30T19:30:47.768Z,0.80
2022-08-30T19:33:15.035Z,0.40
2022-08-30T19:35:48.974Z,0.50
2022-08-30T19:38:18.113Z,0.60
2022-08-30T19:40:44.979Z,0.50
2022-08-30T19:43:20.909Z,0.50
2022-08-30T19:45:53.825Z,0.60
2022-08-30T19:48:32.112Z,0.70
2022-08-30T19:51:08.041Z,0.70
2022-08-30T19:53:35.323Z,0.50
2022-08-30T19:56:02.828Z,0.70
2022-08-30T19:58:30.364Z,0.70
2022-08-30T20:01:00.795Z,0.60
2022-08-30T20:03:27.966Z,0.50
2022-08-30T20:05:57.737Z,0.50
2022-08-30T20:08:28.518Z,0.50
2022-08-30T20:10:59.007Z,0.50
2022-08-30T20:13:26.446Z,0.60
2022-08-30T20:15:56.897Z,0.60
2022-08-30T20:18:28.960Z,0.70
2022-08-30T20:20:57.027Z,0.70
2022-08-30T20:23:25.293Z,0.80
2022-08-30T20:25:55.586Z,0.90
2022-08-30T20:28:26.569Z,0.70
2022-08-30T20:30:57.529Z,0.80
2022-08-30T20:33:27.492Z,0.60
2022-08-30T20:35:55.010Z,0.80
2022-08-30T20:38:22.178Z,0.90
2022-08-30T20:40:58.530Z,0.80
2022-08-30T20:43:28.742Z,0.70
2022-08-30T20:46:08.116Z,0.90
2022-08-30T20:48:41.545Z,0.70
2022-08-30T20:51:13.647Z,0.90
2022-08-30T20:53:52.420Z,1.00
2022-08-30T20:56:25.558Z,0.90
2022-08-30T20:58:52.668Z,0.80
2022-08-30T21:01:20.437Z,0.80
2022-08-30T21:03:52.937Z,0.80
2022-08-30T21:06:26.226Z,0.80
2022-08-30T21:09:04.740Z,0.70
2022-08-30T21:11:34.459Z,0.90
2022-08-30T21:14:17.673Z,0.80
2022-08-30T21:16:51.556Z,0.90
2022-08-30T21:19:24.866Z,0.70
2022-08-30T21:21:54.708Z,0.80
2022-08-30T21:24:33.269Z,0.80
2022-08-30T21:27:13.361Z,0.80
2022-08-30T21:29:47.714Z,0.70
2022-08-30T21:32:17.407Z,0.80
2022-08-30T21:35:19.727Z,0.70
2022-08-30T21:38:01.168Z,0.50
2022-08-30T21:40:38.662Z,0.60
2022-08-30T21:43:15.649Z,0.60
2022-08-30T21:46:01.879Z,0.70
2022-08-30T21:48:37.440Z,0.40
2022-08-30T21:51:10.181Z,0.70
2022-08-30T21:53:46.301Z,1.00
2022-08-30T21:56:28.305Z,0.70
2022-08-30T21:58:58.134Z,0.60
2022-08-30T22:01:43.203Z,0.60
2022-08-30T22:04:24.406Z,0.80
2022-08-30T22:07:10.573Z,0.70
2022-08-30T22:09:52.774Z,0.80
2022-08-30T22:12:32.210Z,0.70
2022-08-30T22:15:10.014Z,0.80
2022-08-30T22:17:42.831Z,0.60
2022-08-30T22:20:15.117Z,0.60
2022-08-30T22:23:08.448Z,0.60
2022-08-30T22:26:02.406Z,0.70
2022-08-30T22:28:34.874Z,0.60
2022-08-30T22:31:08.318Z,0.50
2022-08-30T22:33:41.362Z,0.60
2022-08-30T22:36:44.786Z,0.50
2022-08-30T22:39:35.465Z,0.50
2022-08-30T22:42:02.854Z,0.40
2022-08-30T22:44:33.237Z,0.50
2022-08-30T22:47:05.867Z,0.50
2022-08-30T22:49:35.462Z,0.30
2022-08-30T22:52:08.470Z,0.40
2022-08-30T22:54:55.846Z,0.40
2022-08-30T22:57:23.254Z,0.50
2022-08-30T23:00:08.764Z,0.40
2022-08-30T23:02:36.765Z,0.50
2022-08-30T23:05:07.685Z,0.70
2022-08-30T23:07:35.358Z,0.60
2022-08-30T23:10:13.578Z,0.50
2022-08-30T23:12:43.466Z,0.60
2022-08-30T23:15:23.027Z,0.40
2022-08-30T23:17:50.882Z,0.60
2022-08-30T23:20:24.484Z,0.50
2022-08-30T23:22:59.547Z,0.50
2022-08-30T23:25:49.678Z,0.40
2022-08-30T23:28:45.586Z,0.60
2022-08-30T23:31:38.838Z,0.60
2022-08-30T23:34:25.348Z,0.60
2022-08-30T23:37:21.464Z,0.60
2022-08-30T23:40:18.698Z,0.50
2022-08-30T23:43:06.818Z,0.90
2022-08-30T23:46:05.334Z,0.60
2022-08-30T23:49:05.003Z,0.80
2022-08-30T23:52:09.377Z,0.60
2022-08-30T23:55:05.508Z,0.60
2022-08-30T23:58:02.683Z,0.50
